Time;durP1;ratioP1;P1;durP2;ratioP2;P2;SDS_P1;SDS_P2;PMS_P1;PMS_P2;Temp;Humidity;BMP_temperature;BMP_pressure;BME280_temperature;BME280_humidity;BME280_pressure;Samples;Min_cycle;Max_cycle;Signal;HPM_P1;HPM_P2
2023/01/11 00:01:07;;;;;;;8.40;2.80;;;;;;;-8.01;50.50;101606.30;105698;1256;67397;-68
2023/01/11 00:03:34;;;;;;;6.60;3.00;;;;;;;-8.03;50.60;101617.70;105611;1256;60377;-65
2023/01/11 00:06:01;;;;;;;8.10;2.70;;;;;;;-8.06;50.73;101625.36;105707;1259;65441;-67
2023/01/11 00:08:28;;;;;;;6.00;2.70;;;;;;;-8.10;50.87;101626.00;105764;1251;60357;-66
2023/01/11 00:10:55;;;;;;;6.80;2.40;;;;;;;-8.12;50.78;101630.73;105854;1251;60433;-66
2023/01/11 00:13:22;;;;;;;5.60;2.40;;;;;;;-8.12;50.93;101632.95;105714;1254;66598;-66
2023/01/11 00:15:49;;;;;;;5.20;2.90;;;;;;;-8.12;50.97;101634.14;105545;1251;60721;-65
2023/01/11 00:18:16;;;;;;;5.40;2.60;;;;;;;-8.14;51.13;101628.80;105935;1252;66859;-67
2023/01/11 00:20:43;;;;;;;6.00;2.80;;;;;;;-8.16;51.22;101629.64;105561;1256;62017;-67
2023/01/11 00:23:10;;;;;;;6.80;3.10;;;;;;;-8.21;51.34;101629.71;105773;1252;60485;-65
2023/01/11 00:25:37;;;;;;;6.50;3.10;;;;;;;-8.23;51.56;101639.94;105933;1251;67827;-65
2023/01/11 00:28:04;;;;;;;8.40;2.80;;;;;;;-8.22;51.72;101640.13;105924;1257;60399;-65
2023/01/11 00:30:31;;;;;;;11.10;3.10;;;;;;;-8.23;51.83;101643.02;105745;1251;66939;-66
2023/01/11 00:32:58;;;;;;;7.80;2.90;;;;;;;-8.24;51.93;101641.29;105846;1254;60469;-66
2023/01/11 00:35:25;;;;;;;4.90;2.40;;;;;;;-8.24;51.97;101643.33;105977;1254;60629;-66
2023/01/11 00:37:53;;;;;;;8.00;2.80;;;;;;;-8.26;51.97;101644.85;105820;1256;67721;-66
2023/01/11 00:40:20;;;;;;;6.00;2.80;;;;;;;-8.27;52.11;101647.90;105765;1251;60663;-66
2023/01/11 00:48:20;;;;;;;7.10;3.20;;;;;;;-8.25;52.49;101656.48;106014;1256;60315;-66
2023/01/11 00:50:47;;;;;;;10.60;3.00;;;;;;;-8.24;52.49;101656.48;105898;1257;67934;-65
2023/01/11 00:53:14;;;;;;;6.10;2.80;;;;;;;-8.23;52.48;101655.31;105896;1256;60521;-66
2023/01/11 00:55:41;;;;;;;9.80;3.00;;;;;;;-8.26;52.60;101659.71;105822;1254;65654;-64
2023/01/11 00:58:08;;;;;;;6.70;2.80;;;;;;;-8.28;52.73;101662.41;105864;1257;60469;-65
2023/01/11 01:00:35;;;;;;;6.10;3.10;;;;;;;-8.28;52.85;101656.25;106009;1251;60552;-67
2023/01/11 01:03:02;;;;;;;6.70;3.20;;;;;;;-8.30;52.87;101654.33;105733;1256;67471;-64
2023/01/11 01:05:29;;;;;;;7.30;3.10;;;;;;;-8.32;52.86;101656.33;105921;1254;60990;-65
2023/01/11 01:07:56;;;;;;;6.30;3.40;;;;;;;-8.33;52.99;101652.41;105904;1251;66628;-69
2023/01/11 01:10:23;;;;;;;8.60;3.40;;;;;;;-8.34;53.07;101656.16;105824;1251;60504;-66
2023/01/11 01:15:35;;;;;;;7.00;3.10;;;;;;;-8.41;53.14;101668.00;105888;1257;67711;-66
2023/01/11 01:18:02;;;;;;;6.40;2.70;;;;;;;-8.45;53.13;101666.22;105938;1251;60533;-66
2023/01/11 01:20:29;;;;;;;8.70;3.20;;;;;;;-8.51;53.11;101660.82;105664;1257;66614;-66
2023/01/11 01:22:56;;;;;;;7.60;3.10;;;;;;;-8.55;53.24;101669.45;105748;1251;60347;-65
2023/01/11 01:25:23;;;;;;;5.80;3.20;;;;;;;-8.58;53.28;101675.18;105611;1257;60462;-64
2023/01/11 01:27:50;;;;;;;6.10;3.10;;;;;;;-8.60;53.34;101673.77;105555;1251;66617;-65
2023/01/11 01:30:17;;;;;;;7.10;3.60;;;;;;;-8.62;53.52;101675.29;105786;1251;60768;-65
2023/01/11 01:32:44;;;;;;;6.40;3.60;;;;;;;-8.66;53.48;101682.73;105855;1252;65629;-65
2023/01/11 01:35:10;;;;;;;9.40;3.60;;;;;;;-8.70;53.47;101688.29;105966;1251;60465;-65
2023/01/11 01:37:37;;;;;;;6.50;3.50;;;;;;;-8.72;53.59;101694.23;105904;1257;60441;-66
2023/01/11 01:40:05;;;;;;;6.60;3.40;;;;;;;-8.74;53.74;101702.04;105887;1251;67633;-66
2023/01/11 01:42:32;;;;;;;7.20;3.20;;;;;;;-8.78;53.73;101707.08;106028;1256;69815;-66
2023/01/11 01:45:01;;;;;;;8.90;3.50;;;;;;;-8.83;53.80;101703.38;105972;1252;66228;-65
2023/01/11 01:47:39;;;;;;;7.50;3.70;;;;;;;-8.84;53.91;101704.05;105867;1253;60441;-67
2023/01/11 01:50:43;;;;;;;11.10;3.50;;;;;;;-8.85;53.79;101707.61;105832;1251;60554;-66
2023/01/11 01:53:15;;;;;;;7.00;3.70;;;;;;;-8.91;53.83;101712.59;105346;1259;66536;-65
2023/01/11 01:55:48;;;;;;;6.90;3.00;;;;;;;-8.94;53.94;101720.39;105689;1251;60978;-65
2023/01/11 01:58:15;;;;;;;6.60;3.80;;;;;;;-8.97;53.94;101718.10;105848;1251;66724;-65
2023/01/11 02:00:43;;;;;;;7.40;3.50;;;;;;;-8.99;54.15;101716.69;105814;1251;62169;-65
2023/01/11 02:03:17;;;;;;;8.60;4.10;;;;;;;-9.01;54.19;101707.79;105791;1251;60549;-65
2023/01/11 02:05:43;;;;;;;9.90;4.00;;;;;;;-9.03;54.19;101700.73;105917;1254;66451;-65
2023/01/11 02:08:33;;;;;;;6.30;4.00;;;;;;;-9.05;54.41;101697.29;105690;1257;60424;-66
2023/01/11 02:11:01;;;;;;;7.40;3.40;;;;;;;-9.06;54.38;101696.92;105867;1251;66384;-66
2023/01/11 02:13:28;;;;;;;6.50;3.40;;;;;;;-9.06;54.62;101698.80;105673;1257;60434;-65
2023/01/11 02:16:07;;;;;;;6.70;3.20;;;;;;;-9.05;54.76;101702.23;105617;1251;60444;-65
2023/01/11 02:18:35;;;;;;;9.20;4.10;;;;;;;-9.04;54.94;101698.51;105981;1251;67564;-66
2023/01/11 02:21:08;;;;;;;9.60;3.90;;;;;;;-9.02;55.00;101695.47;105674;1251;60917;-67
2023/01/11 02:23:41;;;;;;;6.80;3.90;;;;;;;-9.02;55.09;101698.89;105739;1251;66619;-68
2023/01/11 02:26:46;;;;;;;9.30;3.90;;;;;;;-9.03;55.25;101696.64;105971;1256;60437;-67
2023/01/11 02:29:41;;;;;;;9.10;3.70;;;;;;;-9.05;55.42;101701.05;105889;1251;60549;-68
2023/01/11 02:32:36;;;;;;;7.10;3.50;;;;;;;-9.06;55.52;101701.71;105734;1251;67601;-68
2023/01/11 02:35:35;;;;;;;8.80;4.30;;;;;;;-9.04;55.73;101698.84;105875;1256;60588;-68
2023/01/11 02:38:14;;;;;;;12.10;3.90;;;;;;;-9.02;55.75;101694.27;105544;1254;66493;-67
2023/01/11 02:41:21;;;;;;;8.90;3.80;;;;;;;-9.00;55.73;101691.58;105880;1254;60472;-68
2023/01/11 02:46:56;;;;;;;8.50;4.20;;;;;;;-8.96;55.87;101691.50;105723;1257;67430;-66
2023/01/11 02:49:36;;;;;;;8.30;3.70;;;;;;;-8.93;55.88;101691.73;105550;1251;60501;-67
2023/01/11 02:52:37;;;;;;;9.40;3.40;;;;;;;-8.93;55.90;101695.48;105597;1252;67749;-66
2023/01/11 02:55:05;;;;;;;10.10;4.20;;;;;;;-8.96;55.85;101688.96;105739;1254;60598;-67
2023/01/11 02:57:33;;;;;;;9.20;3.90;;;;;;;-8.96;55.81;101683.83;105839;1251;60534;-65
2023/01/11 03:00:00;;;;;;;8.00;3.60;;;;;;;-8.94;55.95;101684.21;105615;1251;67600;-67
2023/01/11 03:02:27;;;;;;;7.70;3.70;;;;;;;-8.94;56.00;101682.67;105593;1257;60961;-67
2023/01/11 03:04:54;;;;;;;11.90;4.40;;;;;;;-8.95;56.09;101685.55;105706;1255;66525;-66
2023/01/11 03:07:22;;;;;;;10.60;4.00;;;;;;;-8.94;56.23;101684.55;105776;1254;60566;-67
2023/01/11 03:10:17;;;;;;;11.60;4.50;;;;;;;-8.93;56.37;101682.86;105792;1251;60503;-68
2023/01/11 03:13:03;;;;;;;10.10;4.00;;;;;;;-8.96;56.80;101678.72;105986;1256;67620;-68
2023/01/11 03:15:59;;;;;;;10.90;4.40;;;;;;;-8.97;57.07;101670.34;107793;1251;60463;-67
2023/01/11 03:18:29;;;;;;;7.70;4.50;;;;;;;-8.98;57.47;101672.33;107678;1254;66867;-65
2023/01/11 03:21:15;;;;;;;12.90;5.20;;;;;;;-9.00;57.69;101676.73;105780;1251;60891;-68
2023/01/11 03:24:10;;;;;;;11.10;4.60;;;;;;;-8.99;57.75;101674.52;106000;1251;60500;-67
2023/01/11 03:27:15;;;;;;;9.60;3.80;;;;;;;-8.98;57.81;101675.23;105771;1251;66588;-66
2023/01/11 03:30:14;;;;;;;7.10;3.80;;;;;;;-8.97;57.87;101677.15;105821;1251;61028;-66
2023/01/11 03:32:45;;;;;;;11.20;4.40;;;;;;;-8.97;57.98;101675.95;105742;1251;66521;-66
2023/01/11 03:35:27;;;;;;;8.90;4.30;;;;;;;-8.97;58.09;101680.72;105893;1254;60498;-66
2023/01/11 03:38:00;;;;;;;8.70;4.60;;;;;;;-9.01;58.23;101682.02;105816;1251;60373;-66
2023/01/11 03:40:39;;;;;;;12.30;4.40;;;;;;;-9.03;58.32;101683.34;105804;1251;67584;-66
2023/01/11 03:43:10;;;;;;;14.50;5.70;;;;;;;-9.02;58.44;101683.70;105727;1257;60595;-64
2023/01/11 03:45:46;;;;;;;10.80;5.20;;;;;;;-9.02;58.57;101680.45;105833;1253;66512;-65
2023/01/11 03:48:19;;;;;;;9.70;5.10;;;;;;;-9.03;58.61;101682.30;105934;1253;60565;-65
2023/01/11 03:50:46;;;;;;;12.50;5.20;;;;;;;-9.07;58.87;101683.75;105702;1254;60556;-63
2023/01/11 03:53:13;;;;;;;7.20;3.90;;;;;;;-9.08;59.03;101684.56;105989;1251;66509;-64
2023/01/11 03:55:40;;;;;;;14.60;4.80;;;;;;;-9.07;59.12;101682.73;105809;1251;60434;-67
2023/01/11 03:58:08;;;;;;;10.10;4.70;;;;;;;-9.04;59.21;101672.39;106049;1251;66659;-65
2023/01/11 04:00:35;;;;;;;13.30;4.60;;;;;;;-9.02;59.45;101675.85;105970;1252;60932;-65
2023/01/11 04:03:02;;;;;;;12.50;4.60;;;;;;;-9.04;59.68;101675.30;105664;1258;60370;-66
2023/01/11 04:05:29;;;;;;;9.70;4.30;;;;;;;-9.08;59.59;101679.47;105876;1254;67588;-68
2023/01/11 04:07:56;;;;;;;8.00;3.70;;;;;;;-9.10;59.65;101679.77;105881;1253;61028;-67
2023/01/11 04:10:23;;;;;;;10.20;4.90;;;;;;;-9.13;59.76;101683.28;105718;1256;66731;-69
2023/01/11 04:12:51;;;;;;;13.80;5.20;;;;;;;-9.17;59.86;101687.29;105897;1251;60433;-69
2023/01/11 04:15:18;;;;;;;9.90;4.60;;;;;;;-9.19;60.07;101686.55;105682;1251;60354;-67
2023/01/11 04:17:45;;;;;;;13.10;5.00;;;;;;;-9.22;60.18;101685.65;105767;1251;67367;-66
2023/01/11 04:20:12;;;;;;;19.00;4.60;;;;;;;-9.24;60.23;101693.80;105795;1251;60447;-67
2023/01/11 04:22:39;;;;;;;12.10;4.50;;;;;;;-9.25;60.08;101701.45;105752;1257;65580;-67
2023/01/11 04:25:07;;;;;;;10.10;4.80;;;;;;;-9.29;59.71;101702.55;105844;1257;60427;-67
2023/01/11 04:27:34;;;;;;;13.20;5.10;;;;;;;-9.32;59.53;101702.98;106067;1257;60499;-65
2023/01/11 04:30:02;;;;;;;8.50;4.60;;;;;;;-9.34;59.41;101700.73;105660;1257;67365;-66
2023/01/11 04:32:28;;;;;;;11.60;4.70;;;;;;;-9.36;59.32;101706.46;105747;1257;60520;-70
2023/01/11 04:34:55;;;;;;;14.00;4.80;;;;;;;-9.41;59.19;101711.84;105858;1254;65583;-68
2023/01/11 04:37:22;;;;;;;12.00;5.50;;;;;;;-9.43;59.17;101714.35;105817;1256;60361;-71
2023/01/11 04:39:49;;;;;;;10.20;5.30;;;;;;;-9.44;59.15;101712.63;105782;1258;60540;-68
2023/01/11 04:42:19;;;;;;;11.90;5.30;;;;;;;-9.44;59.17;101705.98;105840;1256;67174;-71
2023/01/11 04:44:48;;;;;;;13.00;5.80;;;;;;;-9.44;59.31;101707.66;105684;1257;60834;-66
2023/01/11 04:47:15;;;;;;;17.90;5.60;;;;;;;-9.45;59.41;101708.30;106042;1256;66777;-68
2023/01/11 04:49:42;;;;;;;11.00;5.20;;;;;;;-9.46;59.51;101711.52;105840;1252;60450;-66
2023/01/11 04:52:10;;;;;;;12.10;5.10;;;;;;;-9.47;59.49;101715.58;106037;1251;60414;-64
2023/01/11 04:54:37;;;;;;;12.10;5.20;;;;;;;-9.50;59.41;101726.09;105819;1256;67895;-68
2023/01/11 04:57:05;;;;;;;13.80;6.70;;;;;;;-9.53;59.40;101731.16;105718;1256;60488;-69
2023/01/11 04:59:32;;;;;;;14.50;6.60;;;;;;;-9.54;59.49;101728.75;105691;1257;65440;-65
2023/01/11 05:01:59;;;;;;;20.60;12.60;;;;;;;-9.54;59.48;101730.79;105770;1251;60638;-68
2023/01/11 05:04:26;;;;;;;18.70;8.90;;;;;;;-9.54;59.53;101738.13;105571;1259;61118;-71
2023/01/11 05:06:53;;;;;;;13.80;6.60;;;;;;;-9.56;59.56;101736.88;105749;1252;67702;-71
2023/01/11 05:09:20;;;;;;;16.00;5.30;;;;;;;-9.59;59.55;101731.86;105829;1251;61127;-68
2023/01/11 05:11:47;;;;;;;11.60;4.90;;;;;;;-9.61;59.51;101741.52;105543;1254;66753;-71
2023/01/11 05:14:15;;;;;;;11.00;5.10;;;;;;;-9.64;59.52;101738.55;105835;1251;60504;-69
2023/01/11 05:16:42;;;;;;;10.80;5.10;;;;;;;-9.68;59.43;101731.12;105558;1251;60370;-68
2023/01/11 05:19:09;;;;;;;8.70;4.40;;;;;;;-9.70;59.45;101727.32;105854;1251;67536;-69
2023/01/11 05:21:38;;;;;;;12.40;5.20;;;;;;;-9.71;59.42;101726.63;106041;1251;60546;-69
2023/01/11 05:24:07;;;;;;;12.00;4.60;;;;;;;-9.72;59.30;101733.23;105727;1251;65548;-69
2023/01/11 05:26:35;;;;;;;11.90;4.90;;;;;;;-9.73;59.20;101735.45;105772;1251;60457;-69
2023/01/11 05:29:04;;;;;;;17.70;5.70;;;;;;;-9.73;59.14;101735.61;105780;1254;60454;-70
2023/01/11 05:31:32;;;;;;;10.90;5.10;;;;;;;-9.73;59.11;101736.97;105623;1254;68368;-72
2023/01/11 05:33:59;;;;;;;13.20;5.30;;;;;;;-9.75;59.04;101745.79;107900;1255;60549;-69
2023/01/11 05:36:26;;;;;;;13.70;5.50;;;;;;;-9.79;59.02;101739.02;106198;1254;65212;-70
2023/01/11 05:38:54;;;;;;;10.90;5.40;;;;;;;-9.82;58.99;101742.38;107639;1254;60375;-69
2023/01/11 05:41:23;;;;;;;14.70;5.80;;;;;;;-9.83;59.07;101747.12;105680;1259;60602;-69
2023/01/11 05:46:36;;;;;;;9.70;5.10;;;;;;;-9.82;59.13;101741.02;105593;1256;60721;-69
2023/01/11 05:49:03;;;;;;;16.70;6.30;;;;;;;-9.82;59.23;101735.73;105654;1254;66142;-70
2023/01/11 05:51:31;;;;;;;16.40;5.70;;;;;;;-9.83;59.30;101734.36;105660;1254;60479;-70
2023/01/11 05:53:59;;;;;;;16.30;6.70;;;;;;;-9.82;59.43;101726.36;105712;1254;60577;-69
2023/01/11 05:56:26;;;;;;;17.10;5.70;;;;;;;-9.80;59.56;101726.73;105778;1254;66632;-69
2023/01/11 05:58:53;;;;;;;16.80;6.70;;;;;;;-9.79;59.61;101729.83;105750;1254;61065;-69
2023/01/11 06:01:20;;;;;;;14.30;6.90;;;;;;;-9.78;59.66;101731.02;105505;1254;66495;-70
2023/01/11 06:03:47;;;;;;;20.10;6.80;;;;;;;-9.76;59.71;101733.80;105776;1254;60393;-69
2023/01/11 06:06:15;;;;;;;11.40;4.60;;;;;;;-9.75;59.65;101730.92;105655;1254;60600;-72
2023/01/11 06:08:42;;;;;;;13.50;5.30;;;;;;;-9.79;59.35;101731.70;105710;1258;67641;-69
2023/01/11 06:11:09;;;;;;;8.50;4.60;;;;;;;-9.81;59.29;101730.80;105703;1254;60924;-69
2023/01/11 06:13:35;;;;;;;13.20;5.20;;;;;;;-9.83;59.16;101730.09;105686;1256;66923;-69
2023/01/11 06:16:09;;;;;;;10.70;5.50;;;;;;;-9.84;59.14;101733.27;105679;1254;60605;-70
2023/01/11 06:18:39;;;;;;;;;;;;;;;-9.84;59.13;101728.35;105768;1259;60404;-69
2023/01/11 06:21:06;;;;;;;12.80;5.10;;;;;;;-9.82;59.09;101731.80;105493;1254;67747;-69
2023/01/11 06:23:36;;;;;;;10.90;5.10;;;;;;;-9.80;59.09;101730.66;105612;1258;60332;-69
2023/01/11 06:26:04;;;;;;;11.60;5.00;;;;;;;-9.77;59.16;101727.47;105668;1254;66800;-70
2023/01/11 06:28:31;;;;;;;12.50;5.00;;;;;;;-9.77;59.11;101727.65;105646;1254;60517;-70
2023/01/11 06:30:58;;;;;;;12.00;5.00;;;;;;;-9.76;59.08;101721.20;105657;1254;60441;-69
2023/01/11 06:33:26;;;;;;;10.90;4.80;;;;;;;-9.76;59.02;101716.77;105746;1251;67655;-71
2023/01/11 06:35:53;;;;;;;15.80;4.60;;;;;;;-9.75;59.02;101715.77;105954;1256;60931;-70
2023/01/11 06:38:21;;;;;;;11.40;5.00;;;;;;;-9.74;59.03;101720.77;105931;1252;66280;-69
2023/01/11 06:40:52;;;;;;;17.30;5.40;;;;;;;-9.72;58.99;101726.60;105768;1251;60431;-69
2023/01/11 06:43:19;;;;;;;12.70;5.80;;;;;;;-9.70;59.04;101737.38;105720;1251;60514;-71
2023/01/11 06:45:46;;;;;;;12.30;5.40;;;;;;;-9.67;59.05;101741.02;105644;1251;290941;-69
2023/01/11 06:48:14;;;;;;;12.70;5.40;;;;;;;-9.64;58.92;101742.48;105802;1256;60438;-69
2023/01/11 06:50:40;;;;;;;16.50;5.80;;;;;;;-9.62;58.90;101740.14;105952;1257;65131;-69
2023/01/11 06:53:07;;;;;;;14.90;5.80;;;;;;;-9.59;58.91;101739.69;105946;1252;64591;-69
2023/01/11 06:55:34;;;;;;;13.50;6.30;;;;;;;-9.55;58.96;101740.14;105913;1251;60444;-68
2023/01/11 06:58:01;;;;;;;16.30;5.80;;;;;;;-9.52;58.84;101737.65;105925;1257;67664;-69
2023/01/11 07:00:28;;;;;;;13.70;6.10;;;;;;;-9.50;58.75;101742.65;105841;1260;60657;-69
2023/01/11 07:02:55;;;;;;;13.30;6.20;;;;;;;-9.46;58.78;101742.91;105897;1257;65257;-69
2023/01/11 07:05:22;;;;;;;16.10;6.30;;;;;;;-9.42;58.78;101740.11;105953;1255;60939;-69
2023/01/11 07:07:49;;;;;;;15.50;6.80;;;;;;;-9.39;58.77;101741.20;105946;1251;60347;-69
2023/01/11 07:10:16;;;;;;;13.00;6.40;;;;;;;-9.34;58.70;101748.33;105950;1251;67680;-69
2023/01/11 07:12:43;;;;;;;14.90;6.50;;;;;;;-9.30;58.61;101755.73;106131;1254;60617;-70
2023/01/11 07:15:10;;;;;;;16.70;6.20;;;;;;;-9.27;58.54;101756.48;108234;1253;66205;-70
2023/01/11 07:17:37;;;;;;;14.10;6.30;;;;;;;-9.24;58.42;101752.98;108624;1252;59365;-68
2023/01/11 07:20:05;;;;;;;17.40;6.20;;;;;;;-9.21;58.52;101749.46;106662;1251;60415;-71
2023/01/11 07:22:34;;;;;;;14.30;6.10;;;;;;;-9.17;58.34;101745.79;106128;1257;66717;-70
2023/01/11 07:25:02;;;;;;;10.40;5.90;;;;;;;-9.16;58.17;101741.58;105952;1251;69854;-69
2023/01/11 07:27:28;;;;;;;14.50;7.10;;;;;;;-9.14;58.13;101737.69;105987;1256;66791;-70
2023/01/11 07:29:58;;;;;;;12.60;5.90;;;;;;;-9.13;58.10;101745.73;105934;1252;60462;-70
2023/01/11 07:32:26;;;;;;;17.40;6.80;;;;;;;-9.13;57.93;101749.48;105845;1253;60571;-69
2023/01/11 07:34:54;;;;;;;11.60;6.80;;;;;;;-9.14;57.92;101745.88;106025;1251;67827;-69
2023/01/11 07:37:21;;;;;;;18.10;6.90;;;;;;;-9.13;58.02;101742.33;105915;1251;60633;-69
2023/01/11 07:39:55;;;;;;;17.80;7.50;;;;;;;-9.10;57.89;101749.02;105935;1254;75384;-69
2023/01/11 07:45:08;;;;;;;13.90;6.10;;;;;;;-9.08;57.95;101736.44;105922;1251;60463;-69
2023/01/11 07:47:35;;;;;;;11.00;5.70;;;;;;;-9.07;58.00;101731.38;105979;1257;67408;-68
2023/01/11 07:50:02;;;;;;;9.80;5.20;;;;;;;-9.07;57.92;101731.52;105946;1251;60316;-69
2023/01/11 07:52:29;;;;;;;14.70;6.20;;;;;;;-9.07;57.92;101730.00;106002;1257;66615;-68
2023/01/11 07:55:01;;;;;;;13.20;5.70;;;;;;;-9.04;58.00;101735.02;105957;1251;60335;-68
2023/01/11 07:57:34;;;;;;;12.00;5.80;;;;;;;-9.01;57.90;101742.91;105784;1251;60463;-69
2023/01/11 08:00:01;;;;;;;12.10;6.50;;;;;;;-8.99;57.95;101752.52;105943;1252;67699;-69
2023/01/11 08:02:37;;;;;;;16.40;7.20;;;;;;;-8.95;57.88;101754.31;105943;1251;61139;-68
2023/01/11 08:05:05;;;;;;;13.60;7.40;;;;;;;-8.90;57.97;101750.52;105826;1251;66161;-68
2023/01/11 08:07:31;;;;;;;14.90;6.80;;;;;;;-8.84;57.96;101744.84;105777;1257;60552;-68
2023/01/11 08:09:58;;;;;;;15.80;6.40;;;;;;;-8.77;57.84;101749.09;105704;1254;61215;-69
2023/01/11 08:15:12;;;;;;;12.00;6.10;;;;;;;-8.69;57.62;101756.08;105678;1254;61074;-68
2023/01/11 08:17:39;;;;;;;11.70;6.40;;;;;;;-8.65;57.70;101750.19;105923;1255;66691;-68
2023/01/11 08:20:07;;;;;;;11.40;6.40;;;;;;;-8.57;57.89;101750.35;105959;1251;60373;-68
2023/01/11 08:22:34;;;;;;;17.20;7.40;;;;;;;-8.51;57.60;101755.08;105966;1251;60488;-68
2023/01/11 08:25:01;;;;;;;15.10;7.10;;;;;;;-8.51;57.41;101754.91;105764;1257;67780;-68
2023/01/11 08:27:28;;;;;;;14.20;6.70;;;;;;;-8.53;57.25;101755.21;105740;1256;60431;-68
2023/01/11 08:29:55;;;;;;;20.60;8.40;;;;;;;-8.55;57.27;101750.91;105936;1252;66217;-69
2023/01/11 08:32:21;;;;;;;18.80;8.00;;;;;;;-8.54;57.37;101747.35;105800;1256;60577;-68
2023/01/11 08:34:48;;;;;;;18.00;8.60;;;;;;;-8.46;57.44;101743.92;105904;1251;60462;-69
2023/01/11 08:37:15;;;;;;;16.90;7.20;;;;;;;-8.37;57.42;101728.55;105956;1252;66514;-68
2023/01/11 08:39:42;;;;;;;15.40;7.10;;;;;;;-8.32;57.36;101726.57;105948;1257;61031;-68
2023/01/11 08:42:09;;;;;;;14.10;7.10;;;;;;;-8.27;57.33;101727.17;105947;1251;66250;-68
2023/01/11 08:44:36;;;;;;;17.70;7.00;;;;;;;-8.19;57.39;101722.54;105807;1255;60898;-68
2023/01/11 08:47:03;;;;;;;16.00;7.40;;;;;;;-8.07;57.44;101713.70;105878;1252;60450;-68
2023/01/11 08:49:30;;;;;;;17.80;8.30;;;;;;;-7.93;57.43;101709.50;105926;1257;67685;-68
2023/01/11 08:51:57;;;;;;;13.10;6.50;;;;;;;-7.84;57.21;101709.49;105648;1256;60395;-68
2023/01/11 08:54:24;;;;;;;13.20;7.30;;;;;;;-7.82;56.83;101704.41;105640;1251;65265;-67
2023/01/11 08:56:50;;;;;;;14.60;6.90;;;;;;;-7.80;56.81;101696.73;105699;1252;60501;-68
2023/01/11 08:59:18;;;;;;;11.90;6.50;;;;;;;-7.74;56.76;101691.02;105913;1251;60350;-68
2023/01/11 09:01:46;;;;;;;12.00;6.60;;;;;;;-7.68;56.57;101683.42;105842;1252;66689;-68
2023/01/11 09:04:13;;;;;;;12.00;6.20;;;;;;;-7.62;56.42;101683.35;105974;1252;60871;-68
2023/01/11 09:06:51;;;;;;;15.00;6.80;;;;;;;-7.56;56.28;101680.02;105735;1256;66548;-68
2023/01/11 09:09:19;;;;;;;19.30;6.10;;;;;;;-7.50;56.15;101683.89;105669;1257;60546;-69
2023/01/11 09:11:56;;;;;;;16.10;6.50;;;;;;;-7.45;56.12;101681.20;105650;1251;60549;-68
2023/01/11 09:14:24;;;;;;;13.10;5.90;;;;;;;-7.39;56.00;101681.98;105699;1257;67838;-68
2023/01/11 09:16:52;;;;;;;13.50;6.40;;;;;;;-7.31;56.01;101678.86;105855;1256;60319;-68
2023/01/11 09:19:19;;;;;;;13.40;6.50;;;;;;;-7.21;55.93;101680.20;105777;1257;65275;-68
2023/01/11 09:21:46;;;;;;;13.00;6.40;;;;;;;-7.10;56.06;101671.45;105662;1252;60444;-68
2023/01/11 09:24:14;;;;;;;11.00;6.10;;;;;;;-6.96;55.92;101672.14;105663;1257;60552;-68
2023/01/11 09:26:42;;;;;;;20.00;7.40;;;;;;;-6.82;55.76;101668.89;105689;1251;67787;-68
2023/01/11 09:29:10;;;;;;;13.40;6.00;;;;;;;-6.69;55.52;101669.04;105760;1257;60901;-68
2023/01/11 09:31:37;;;;;;;14.20;6.90;;;;;;;-6.61;54.99;101666.74;105743;1254;66237;-68
2023/01/11 09:34:05;;;;;;;15.30;7.00;;;;;;;-6.58;54.86;101667.45;105863;1252;60421;-68
2023/01/11 09:36:34;;;;;;;13.20;6.30;;;;;;;-6.51;54.87;101665.83;105923;1252;60428;-68
2023/01/11 09:39:06;;;;;;;11.10;6.60;;;;;;;-6.44;54.61;101668.99;105951;1257;67693;-68
2023/01/11 09:41:33;;;;;;;13.00;6.10;;;;;;;-6.38;54.55;101661.70;105946;1251;60906;-68
2023/01/11 09:44:14;;;;;;;14.40;6.60;;;;;;;-6.30;54.35;101654.40;105890;1254;66507;-68
2023/01/11 09:46:44;;;;;;;12.50;6.70;;;;;;;-6.18;54.04;101647.49;105837;1254;60558;-69
2023/01/11 09:49:15;;;;;;;13.50;6.50;;;;;;;-6.15;53.49;101644.61;105969;1254;60546;-68
2023/01/11 09:51:42;;;;;;;12.40;6.70;;;;;;;-6.18;53.23;101646.28;105944;1256;66617;-68
2023/01/11 09:54:13;;;;;;;11.70;6.50;;;;;;;-6.17;53.16;101647.33;105927;1251;68585;-68
2023/01/11 09:56:46;;;;;;;11.90;6.60;;;;;;;-6.14;53.01;101644.79;105856;1251;66257;-68
2023/01/11 09:59:53;;;;;;;14.80;7.10;;;;;;;-6.11;52.75;101646.02;105994;1251;64538;-68
2023/01/11 10:02:38;;;;;;;13.30;6.40;;;;;;;-6.07;52.84;101645.36;105295;1260;60567;-69
2023/01/11 10:05:16;;;;;;;11.60;6.40;;;;;;;-5.99;52.85;101645.08;105760;1251;66629;-69
2023/01/11 10:08:26;;;;;;;14.80;6.60;;;;;;;-5.85;52.80;101640.54;105799;1251;69945;-69
2023/01/11 10:11:27;;;;;;;13.00;6.10;;;;;;;-5.71;52.68;101629.50;105836;1257;65489;-70
2023/01/11 10:14:34;;;;;;;11.80;6.10;;;;;;;-5.59;52.37;101628.04;105715;1257;60466;-69
2023/01/11 10:17:46;;;;;;;13.60;6.00;;;;;;;-5.50;51.88;101623.98;105770;1251;60540;-72
2023/01/11 10:20:39;;;;;;;12.00;6.00;;;;;;;-5.45;51.76;101624.02;105782;1256;67671;-70
2023/01/11 10:23:27;;;;;;;11.90;6.70;;;;;;;-5.42;51.59;101626.59;105801;1252;60668;-70
2023/01/11 10:25:57;;;;;;;13.30;6.40;;;;;;;-5.40;51.47;101628.48;105737;1255;66622;-71
2023/01/11 10:28:34;;;;;;;12.10;6.10;;;;;;;-5.38;51.44;101634.69;105890;1254;64618;-72
2023/01/11 10:31:25;;;;;;;13.60;6.30;;;;;;;-5.32;51.47;101628.89;105636;1254;60629;-71
2023/01/11 10:37:09;;;;;;;13.10;6.60;;;;;;;-5.09;51.57;101620.42;105594;1259;60450;-69
2023/01/11 10:42:31;;;;;;;16.80;6.30;;;;;;;-4.97;50.97;101617.90;105727;1256;60488;-69
2023/01/11 10:45:21;;;;;;;10.70;5.90;;;;;;;-4.97;50.76;101609.66;105619;1254;60520;-69
2023/01/11 10:48:35;;;;;;;11.30;6.50;;;;;;;-4.94;50.73;101601.42;102371;1292;615602;-70
2023/01/11 10:51:10;;;;;;;17.40;6.70;;;;;;;-4.93;50.74;101600.58;104780;1267;59741;-71
2023/01/11 10:53:44;;;;;;;15.50;6.90;;;;;;;-4.92;50.61;101598.51;104773;1267;59364;-70
2023/01/11 10:56:26;;;;;;;12.10;6.40;;;;;;;-4.96;50.53;101596.09;104971;1267;64570;-71
2023/01/11 10:59:33;;;;;;;9.80;5.80;;;;;;;-4.98;50.56;101595.56;104919;1272;59293;-69
2023/01/11 11:02:00;;;;;;;15.40;6.20;;;;;;;-4.99;50.81;101590.93;105054;1266;188432;-69
2023/01/11 11:04:53;;;;;;;11.70;6.40;;;;;;;-4.94;50.97;101578.75;105678;1264;59246;-69
2023/01/11 11:07:25;;;;;;;13.90;6.80;;;;;;;-4.89;50.87;101576.36;107486;1251;59701;-68
2023/01/11 11:10:09;;;;;;;13.40;6.80;;;;;;;-4.90;50.92;101587.36;108515;1251;64071;-69
2023/01/11 11:12:38;;;;;;;12.80;6.60;;;;;;;-4.92;51.09;101588.21;106035;1257;60106;-70
2023/01/11 11:15:06;;;;;;;15.00;6.30;;;;;;;-4.93;51.71;101582.70;105953;1254;74069;-70
2023/01/11 11:17:37;;;;;;;11.10;6.10;;;;;;;-4.94;52.14;101589.05;105992;1256;59663;-70
2023/01/11 11:20:21;;;;;;;15.20;6.70;;;;;;;-4.98;52.38;101580.80;105857;1252;59685;-70
2023/01/11 11:22:52;;;;;;;15.00;6.70;;;;;;;-5.02;52.52;101566.88;105706;1254;64952;-69
2023/01/11 11:25:21;;;;;;;13.90;6.90;;;;;;;-5.06;52.52;101559.81;105718;1251;60946;-69
2023/01/11 11:28:00;;;;;;;14.50;6.30;;;;;;;-5.09;52.52;101557.58;105720;1254;64600;-69
2023/01/11 11:30:32;;;;;;;15.60;6.60;;;;;;;-5.12;52.51;101555.16;105760;1255;60309;-70
2023/01/11 11:33:01;;;;;;;18.30;6.40;;;;;;;-5.19;52.44;101546.89;105861;1254;59660;-70
2023/01/11 11:35:39;;;;;;;10.70;5.70;;;;;;;-5.26;52.60;101547.55;105923;1251;65087;-69
2023/01/11 11:38:06;;;;;;;12.20;6.30;;;;;;;-5.36;52.98;101541.33;105943;1256;59874;-69
2023/01/11 11:40:35;;;;;;;14.40;6.80;;;;;;;-5.37;53.65;101539.10;105642;1259;74018;-70
2023/01/11 11:43:22;;;;;;;10.40;6.10;;;;;;;-5.28;54.12;101536.04;105841;1251;59644;-71
2023/01/11 11:45:54;;;;;;;11.50;6.10;;;;;;;-5.18;54.26;101545.35;105607;1251;61896;-70
2023/01/11 11:48:22;;;;;;;12.50;6.80;;;;;;;-5.06;54.58;101549.34;105840;1251;74496;-68
2023/01/11 11:50:51;;;;;;;11.70;6.40;;;;;;;-4.84;54.70;101548.53;105718;1251;68785;-69
2023/01/11 11:53:21;;;;;;;15.50;7.20;;;;;;;-4.53;54.89;101548.08;105704;1257;73534;-74
2023/01/11 11:55:48;;;;;;;22.20;6.30;;;;;;;-4.30;54.20;101546.90;105595;1259;63889;-69
2023/01/11 11:58:18;;;;;;;16.70;6.40;;;;;;;-4.21;53.73;101551.54;105757;1252;61760;-69